LGSK

Details ICAO LGSK (JSI)
Name Skiathos Alexandros Papadiamantis
Region Greece
Timezone Europe/Athens (UTC+3.0)
Plans Departing 354
Arriving 555
Stats Elevation 54 ft / 16 m (AMSL)
Location 39.177100° 23.503677°
Runways 1
Magnetic Variation 4.597° E
Sunrise 2018-05-23 03:08:10 UTC / 2018-05-23 06:08:10 Local
Sunset 2018-05-23 17:40:09 UTC / 2018-05-23 20:40:09 Local
Advertisement - Login to hide

Runways

ID Width Length Bearing (true) Bearing (mag) Surface Threshold Offset Overrun Length
02 98 ft / 30 m 5,535 ft / 1,687 m 18.96° 14.36° Asphalt 190 ft / 58 m 0 ft / 0 m
20 98 ft / 30 m 5,535 ft / 1,687 m 198.97° 194.37° Asphalt 0 ft / 0 m 242 ft / 74 m

Map

Weather


0- 5 10 15 20 25 30 35+ Temperature / ° C

Clouds and Precipitation
Forecast for 2018-05-23 18:00 UTC. Updated 11 minutes ago

Ground ~20,000 ft ~40,000 ft Winds

METAR

LGSK 231650Z 00000KT 9999 FEW020 22/17 Q1015

TAF

Not found

Frequencies

Tower 126.05 MHz SKIATHOS TWR
Approach 126.05 MHz SKIATHOS APP
Warning: Do not use this data for real-world aviation or navigation. No guarantee of current accuracy is given.